sensor_id;sensor_type;location;lat;lon;timestamp;P1;durP1;ratioP1;P2;durP2;ratioP2
31594;SDS011;18200;48.726;8.892;2023-07-13T00:01:16;9.77;;;1.60;;
31594;SDS011;18200;48.726;8.892;2023-07-13T00:05:17;3.88;;;1.40;;
31594;SDS011;18200;48.726;8.892;2023-07-13T00:09:17;5.05;;;1.40;;
31594;SDS011;18200;48.726;8.892;2023-07-13T00:13:18;4.90;;;1.30;;
31594;SDS011;18200;48.726;8.892;2023-07-13T00:17:19;7.93;;;1.42;;
31594;SDS011;18200;48.726;8.892;2023-07-13T00:21:19;4.22;;;1.27;;
31594;SDS011;18200;48.726;8.892;2023-07-13T00:25:20;5.75;;;1.60;;
31594;SDS011;18200;48.726;8.892;2023-07-13T00:29:21;6.15;;;1.42;;
31594;SDS011;18200;48.726;8.892;2023-07-13T00:33:22;4.22;;;1.40;;
31594;SDS011;18200;48.726;8.892;2023-07-13T00:37:23;12.43;;;2.78;;
31594;SDS011;18200;48.726;8.892;2023-07-13T00:41:23;6.97;;;1.38;;
31594;SDS011;18200;48.726;8.892;2023-07-13T00:49:25;7.50;;;1.27;;
31594;SDS011;18200;48.726;8.892;2023-07-13T00:53:27;3.08;;;1.25;;
31594;SDS011;18200;48.726;8.892;2023-07-13T00:57:31;3.57;;;1.40;;
31594;SDS011;18200;48.726;8.892;2023-07-13T01:01:31;4.85;;;1.50;;
31594;SDS011;18200;48.726;8.892;2023-07-13T01:05:33;5.60;;;1.52;;
31594;SDS011;18200;48.726;8.892;2023-07-13T01:09:34;3.88;;;1.42;;
31594;SDS011;18200;48.726;8.892;2023-07-13T01:13:35;4.60;;;1.40;;
31594;SDS011;18200;48.726;8.892;2023-07-13T01:17:35;5.57;;;1.20;;
31594;SDS011;18200;48.726;8.892;2023-07-13T01:21:35;4.45;;;1.20;;
31594;SDS011;18200;48.726;8.892;2023-07-13T01:25:42;10.25;;;1.48;;
31594;SDS011;18200;48.726;8.892;2023-07-13T01:29:44;3.47;;;1.30;;
31594;SDS011;18200;48.726;8.892;2023-07-13T01:33:46;7.63;;;1.98;;
31594;SDS011;18200;48.726;8.892;2023-07-13T01:37:46;4.18;;;1.30;;
31594;SDS011;18200;48.726;8.892;2023-07-13T01:41:49;4.50;;;1.55;;
31594;SDS011;18200;48.726;8.892;2023-07-13T01:45:50;3.95;;;1.30;;
31594;SDS011;18200;48.726;8.892;2023-07-13T01:49:51;5.45;;;1.23;;
31594;SDS011;18200;48.726;8.892;2023-07-13T01:53:52;3.13;;;1.30;;
31594;SDS011;18200;48.726;8.892;2023-07-13T01:57:52;4.90;;;1.33;;
31594;SDS011;18200;48.726;8.892;2023-07-13T02:01:52;3.47;;;1.55;;
31594;SDS011;18200;48.726;8.892;2023-07-13T02:05:53;4.10;;;1.20;;
31594;SDS011;18200;48.726;8.892;2023-07-13T02:09:54;4.05;;;1.83;;
31594;SDS011;18200;48.726;8.892;2023-07-13T02:13:54;8.07;;;1.75;;
31594;SDS011;18200;48.726;8.892;2023-07-13T02:17:55;2.05;;;1.10;;
31594;SDS011;18200;48.726;8.892;2023-07-13T02:21:56;4.28;;;1.40;;
31594;SDS011;18200;48.726;8.892;2023-07-13T02:25:57;2.40;;;1.20;;
31594;SDS011;18200;48.726;8.892;2023-07-13T02:29:59;5.05;;;1.65;;
31594;SDS011;18200;48.726;8.892;2023-07-13T02:34:00;6.20;;;1.65;;
31594;SDS011;18200;48.726;8.892;2023-07-13T02:38:00;6.68;;;1.70;;
31594;SDS011;18200;48.726;8.892;2023-07-13T02:42:00;4.70;;;1.30;;
31594;SDS011;18200;48.726;8.892;2023-07-13T02:46:01;5.65;;;1.98;;
31594;SDS011;18200;48.726;8.892;2023-07-13T02:50:07;3.50;;;1.30;;
31594;SDS011;18200;48.726;8.892;2023-07-13T02:54:08;12.82;;;1.95;;
31594;SDS011;18200;48.726;8.892;2023-07-13T02:58:09;3.58;;;1.70;;
31594;SDS011;18200;48.726;8.892;2023-07-13T03:02:09;6.45;;;1.92;;
31594;SDS011;18200;48.726;8.892;2023-07-13T03:06:10;7.90;;;1.75;;
31594;SDS011;18200;48.726;8.892;2023-07-13T03:10:20;9.30;;;1.98;;
31594;SDS011;18200;48.726;8.892;2023-07-13T03:14:23;4.68;;;1.60;;
31594;SDS011;18200;48.726;8.892;2023-07-13T03:18:25;5.72;;;1.90;;
31594;SDS011;18200;48.726;8.892;2023-07-13T03:22:27;3.80;;;1.73;;
31594;SDS011;18200;48.726;8.892;2023-07-13T03:26:28;5.72;;;2.03;;
31594;SDS011;18200;48.726;8.892;2023-07-13T03:30:30;6.10;;;1.90;;
31594;SDS011;18200;48.726;8.892;2023-07-13T03:34:32;6.82;;;1.80;;
31594;SDS011;18200;48.726;8.892;2023-07-13T03:38:33;3.53;;;1.65;;
31594;SDS011;18200;48.726;8.892;2023-07-13T03:42:36;2.63;;;1.70;;
31594;SDS011;18200;48.726;8.892;2023-07-13T03:46:36;5.45;;;1.98;;
31594;SDS011;18200;48.726;8.892;2023-07-13T03:50:38;4.28;;;1.65;;
31594;SDS011;18200;48.726;8.892;2023-07-13T03:54:38;4.55;;;1.80;;
31594;SDS011;18200;48.726;8.892;2023-07-13T03:58:40;8.93;;;1.80;;
31594;SDS011;18200;48.726;8.892;2023-07-13T04:02:52;7.57;;;2.40;;
31594;SDS011;18200;48.726;8.892;2023-07-13T04:06:53;5.00;;;2.17;;
31594;SDS011;18200;48.726;8.892;2023-07-13T04:10:53;2.75;;;1.50;;
31594;SDS011;18200;48.726;8.892;2023-07-13T04:14:54;2.75;;;1.65;;
31594;SDS011;18200;48.726;8.892;2023-07-13T04:18:55;3.40;;;1.70;;
31594;SDS011;18200;48.726;8.892;2023-07-13T04:22:59;3.17;;;1.55;;
31594;SDS011;18200;48.726;8.892;2023-07-13T04:26:59;6.60;;;1.90;;
31594;SDS011;18200;48.726;8.892;2023-07-13T04:31:01;7.03;;;1.70;;
31594;SDS011;18200;48.726;8.892;2023-07-13T04:35:02;5.00;;;1.70;;
31594;SDS011;18200;48.726;8.892;2023-07-13T04:39:03;8.98;;;2.15;;
31594;SDS011;18200;48.726;8.892;2023-07-13T04:43:03;6.90;;;2.17;;
31594;SDS011;18200;48.726;8.892;2023-07-13T04:47:03;3.33;;;1.90;;
31594;SDS011;18200;48.726;8.892;2023-07-13T04:51:04;3.63;;;1.80;;
31594;SDS011;18200;48.726;8.892;2023-07-13T04:55:04;8.32;;;1.88;;
31594;SDS011;18200;48.726;8.892;2023-07-13T04:59:05;2.80;;;1.75;;
31594;SDS011;18200;48.726;8.892;2023-07-13T05:03:06;5.68;;;2.10;;
31594;SDS011;18200;48.726;8.892;2023-07-13T05:07:06;6.97;;;2.17;;
31594;SDS011;18200;48.726;8.892;2023-07-13T05:11:06;4.28;;;2.00;;
31594;SDS011;18200;48.726;8.892;2023-07-13T05:15:07;6.40;;;2.05;;
31594;SDS011;18200;48.726;8.892;2023-07-13T05:19:08;5.30;;;2.35;;
31594;SDS011;18200;48.726;8.892;2023-07-13T05:23:08;4.82;;;2.25;;
31594;SDS011;18200;48.726;8.892;2023-07-13T05:27:09;7.50;;;2.20;;
31594;SDS011;18200;48.726;8.892;2023-07-13T05:31:09;8.23;;;2.15;;
31594;SDS011;18200;48.726;8.892;2023-07-13T05:35:10;5.72;;;2.13;;
31594;SDS011;18200;48.726;8.892;2023-07-13T05:39:10;7.85;;;2.58;;
31594;SDS011;18200;48.726;8.892;2023-07-13T05:43:12;5.82;;;2.40;;
31594;SDS011;18200;48.726;8.892;2023-07-13T05:47:12;5.85;;;2.42;;
31594;SDS011;18200;48.726;8.892;2023-07-13T05:51:14;5.70;;;2.10;;
31594;SDS011;18200;48.726;8.892;2023-07-13T05:55:15;3.70;;;2.10;;
31594;SDS011;18200;48.726;8.892;2023-07-13T05:59:15;4.93;;;2.35;;
31594;SDS011;18200;48.726;8.892;2023-07-13T06:03:17;4.43;;;1.98;;
31594;SDS011;18200;48.726;8.892;2023-07-13T06:07:17;8.30;;;2.30;;
31594;SDS011;18200;48.726;8.892;2023-07-13T06:11:19;4.53;;;2.28;;
31594;SDS011;18200;48.726;8.892;2023-07-13T06:15:22;5.63;;;2.20;;
31594;SDS011;18200;48.726;8.892;2023-07-13T06:19:22;4.45;;;2.38;;
31594;SDS011;18200;48.726;8.892;2023-07-13T06:23:23;3.63;;;1.90;;
31594;SDS011;18200;48.726;8.892;2023-07-13T06:27:24;5.35;;;2.13;;
31594;SDS011;18200;48.726;8.892;2023-07-13T06:31:24;5.63;;;1.80;;
31594;SDS011;18200;48.726;8.892;2023-07-13T06:35:24;4.50;;;1.90;;
31594;SDS011;18200;48.726;8.892;2023-07-13T06:39:25;4.78;;;1.77;;
31594;SDS011;18200;48.726;8.892;2023-07-13T06:43:25;5.80;;;2.28;;
31594;SDS011;18200;48.726;8.892;2023-07-13T06:47:26;4.97;;;2.08;;
31594;SDS011;18200;48.726;8.892;2023-07-13T06:51:26;9.85;;;1.98;;
31594;SDS011;18200;48.726;8.892;2023-07-13T06:55:27;6.65;;;2.17;;
31594;SDS011;18200;48.726;8.892;2023-07-13T06:59:27;4.55;;;2.00;;
31594;SDS011;18200;48.726;8.892;2023-07-13T07:03:27;6.22;;;1.70;;
31594;SDS011;18200;48.726;8.892;2023-07-13T07:07:28;3.30;;;1.67;;
31594;SDS011;18200;48.726;8.892;2023-07-13T07:11:28;4.28;;;1.30;;
31594;SDS011;18200;48.726;8.892;2023-07-13T07:15:28;7.60;;;1.60;;
31594;SDS011;18200;48.726;8.892;2023-07-13T07:19:30;4.82;;;1.60;;
31594;SDS011;18200;48.726;8.892;2023-07-13T07:23:30;6.88;;;1.70;;
31594;SDS011;18200;48.726;8.892;2023-07-13T07:27:31;2.67;;;1.65;;
31594;SDS011;18200;48.726;8.892;2023-07-13T07:31:32;4.50;;;1.42;;
31594;SDS011;18200;48.726;8.892;2023-07-13T07:35:32;4.43;;;1.20;;
31594;SDS011;18200;48.726;8.892;2023-07-13T07:39:33;4.40;;;1.30;;
31594;SDS011;18200;48.726;8.892;2023-07-13T07:43:33;3.30;;;1.30;;
31594;SDS011;18200;48.726;8.892;2023-07-13T07:47:34;3.72;;;1.20;;
31594;SDS011;18200;48.726;8.892;2023-07-13T07:51:34;4.07;;;1.10;;
31594;SDS011;18200;48.726;8.892;2023-07-13T07:55:35;7.18;;;1.73;;
31594;SDS011;18200;48.726;8.892;2023-07-13T07:59:36;4.00;;;1.38;;
31594;SDS011;18200;48.726;8.892;2023-07-13T08:03:37;3.45;;;1.30;;
31594;SDS011;18200;48.726;8.892;2023-07-13T08:07:38;6.60;;;1.30;;
31594;SDS011;18200;48.726;8.892;2023-07-13T08:11:38;5.95;;;1.30;;
31594;SDS011;18200;48.726;8.892;2023-07-13T08:15:39;2.78;;;1.20;;
31594;SDS011;18200;48.726;8.892;2023-07-13T08:19:40;4.47;;;1.80;;
31594;SDS011;18200;48.726;8.892;2023-07-13T08:23:40;7.32;;;1.55;;
31594;SDS011;18200;48.726;8.892;2023-07-13T08:27:40;5.35;;;1.58;;
31594;SDS011;18200;48.726;8.892;2023-07-13T08:31:41;9.05;;;1.52;;
31594;SDS011;18200;48.726;8.892;2023-07-13T08:35:41;4.65;;;1.23;;
31594;SDS011;18200;48.726;8.892;2023-07-13T08:39:41;4.93;;;1.60;;
31594;SDS011;18200;48.726;8.892;2023-07-13T08:43:43;2.40;;;1.30;;
31594;SDS011;18200;48.726;8.892;2023-07-13T08:47:50;7.65;;;1.58;;
31594;SDS011;18200;48.726;8.892;2023-07-13T08:52:01;5.45;;;1.50;;
31594;SDS011;18200;48.726;8.892;2023-07-13T08:56:23;4.88;;;1.65;;
31594;SDS011;18200;48.726;8.892;2023-07-13T09:00:31;2.33;;;1.15;;
31594;SDS011;18200;48.726;8.892;2023-07-13T09:08:58;5.78;;;1.60;;
31594;SDS011;18200;48.726;8.892;2023-07-13T09:17:27;8.00;;;1.67;;
31594;SDS011;18200;48.726;8.892;2023-07-13T09:21:46;3.30;;;1.30;;
31594;SDS011;18200;48.726;8.892;2023-07-13T09:25:47;10.57;;;1.98;;
31594;SDS011;18200;48.726;8.892;2023-07-13T09:29:57;5.18;;;1.38;;
31594;SDS011;18200;48.726;8.892;2023-07-13T09:34:19;5.82;;;1.27;;
31594;SDS011;18200;48.726;8.892;2023-07-13T09:38:19;6.75;;;1.17;;
31594;SDS011;18200;48.726;8.892;2023-07-13T09:42:23;6.10;;;1.50;;
31594;SDS011;18200;48.726;8.892;2023-07-13T09:46:25;5.65;;;1.70;;
31594;SDS011;18200;48.726;8.892;2023-07-13T09:50:25;3.63;;;1.60;;
31594;SDS011;18200;48.726;8.892;2023-07-13T09:54:25;5.40;;;1.45;;
31594;SDS011;18200;48.726;8.892;2023-07-13T09:58:27;5.95;;;1.35;;
31594;SDS011;18200;48.726;8.892;2023-07-13T10:02:32;6.95;;;1.27;;
31594;SDS011;18200;48.726;8.892;2023-07-13T10:06:34;4.97;;;1.30;;
31594;SDS011;18200;48.726;8.892;2023-07-13T10:10:35;5.53;;;1.25;;
31594;SDS011;18200;48.726;8.892;2023-07-13T10:14:35;5.38;;;1.45;;
31594;SDS011;18200;48.726;8.892;2023-07-13T10:18:44;6.45;;;1.70;;
31594;SDS011;18200;48.726;8.892;2023-07-13T10:22:53;6.22;;;1.30;;
31594;SDS011;18200;48.726;8.892;2023-07-13T10:27:01;6.07;;;1.58;;
31594;SDS011;18200;48.726;8.892;2023-07-13T10:31:04;4.28;;;1.40;;
31594;SDS011;18200;48.726;8.892;2023-07-13T10:35:12;5.47;;;1.50;;
31594;SDS011;18200;48.726;8.892;2023-07-13T10:39:19;4.53;;;1.38;;
31594;SDS011;18200;48.726;8.892;2023-07-13T10:43:42;6.05;;;1.42;;
31594;SDS011;18200;48.726;8.892;2023-07-13T10:47:44;6.95;;;1.50;;
31594;SDS011;18200;48.726;8.892;2023-07-13T10:51:45;6.03;;;1.65;;
31594;SDS011;18200;48.726;8.892;2023-07-13T11:04:04;5.77;;;1.70;;
31594;SDS011;18200;48.726;8.892;2023-07-13T11:08:19;2.92;;;1.20;;
31594;SDS011;18200;48.726;8.892;2023-07-13T11:12:50;5.38;;;1.30;;
31594;SDS011;18200;48.726;8.892;2023-07-13T11:16:53;4.72;;;1.30;;
31594;SDS011;18200;48.726;8.892;2023-07-13T11:21:02;4.60;;;1.75;;
31594;SDS011;18200;48.726;8.892;2023-07-13T11:25:21;5.05;;;1.65;;
31594;SDS011;18200;48.726;8.892;2023-07-13T11:37:40;4.53;;;1.60;;
31594;SDS011;18200;48.726;8.892;2023-07-13T11:41:45;6.05;;;1.58;;
31594;SDS011;18200;48.726;8.892;2023-07-13T11:45:51;3.80;;;1.70;;
31594;SDS011;18200;48.726;8.892;2023-07-13T11:49:52;3.22;;;1.77;;
31594;SDS011;18200;48.726;8.892;2023-07-13T11:53:56;9.55;;;1.75;;
31594;SDS011;18200;48.726;8.892;2023-07-13T11:58:00;7.43;;;1.40;;
31594;SDS011;18200;48.726;8.892;2023-07-13T12:02:08;5.23;;;1.60;;
31594;SDS011;18200;48.726;8.892;2023-07-13T12:06:31;4.40;;;1.67;;
31594;SDS011;18200;48.726;8.892;2023-07-13T12:10:33;6.70;;;1.60;;
31594;SDS011;18200;48.726;8.892;2023-07-13T12:14:33;4.88;;;1.52;;
31594;SDS011;18200;48.726;8.892;2023-07-13T12:18:34;2.75;;;1.50;;
31594;SDS011;18200;48.726;8.892;2023-07-13T12:22:34;3.88;;;1.58;;
31594;SDS011;18200;48.726;8.892;2023-07-13T12:26:35;2.88;;;1.58;;
31594;SDS011;18200;48.726;8.892;2023-07-13T12:30:37;5.07;;;1.60;;
31594;SDS011;18200;48.726;8.892;2023-07-13T12:34:49;4.72;;;1.73;;
31594;SDS011;18200;48.726;8.892;2023-07-13T12:39:04;3.58;;;1.73;;
31594;SDS011;18200;48.726;8.892;2023-07-13T12:43:13;4.63;;;1.92;;
31594;SDS011;18200;48.726;8.892;2023-07-13T12:47:15;4.30;;;1.67;;
31594;SDS011;18200;48.726;8.892;2023-07-13T12:51:16;6.75;;;1.80;;
31594;SDS011;18200;48.726;8.892;2023-07-13T12:55:17;6.20;;;1.63;;
31594;SDS011;18200;48.726;8.892;2023-07-13T12:59:19;3.22;;;1.50;;
31594;SDS011;18200;48.726;8.892;2023-07-13T13:03:22;4.05;;;1.52;;
31594;SDS011;18200;48.726;8.892;2023-07-13T13:07:28;5.05;;;1.77;;
31594;SDS011;18200;48.726;8.892;2023-07-13T13:11:30;5.65;;;2.03;;
31594;SDS011;18200;48.726;8.892;2023-07-13T13:15:31;3.22;;;1.65;;
31594;SDS011;18200;48.726;8.892;2023-07-13T13:19:32;5.80;;;1.77;;
31594;SDS011;18200;48.726;8.892;2023-07-13T13:23:33;4.88;;;1.60;;
31594;SDS011;18200;48.726;8.892;2023-07-13T13:27:33;5.80;;;1.73;;
31594;SDS011;18200;48.726;8.892;2023-07-13T13:31:34;5.78;;;1.80;;
31594;SDS011;18200;48.726;8.892;2023-07-13T13:35:34;5.07;;;1.20;;
31594;SDS011;18200;48.726;8.892;2023-07-13T13:39:35;4.50;;;1.75;;
31594;SDS011;18200;48.726;8.892;2023-07-13T13:43:37;4.53;;;1.70;;
31594;SDS011;18200;48.726;8.892;2023-07-13T13:47:37;2.97;;;1.55;;
31594;SDS011;18200;48.726;8.892;2023-07-13T13:51:38;4.35;;;1.80;;
31594;SDS011;18200;48.726;8.892;2023-07-13T13:55:38;5.07;;;1.27;;
31594;SDS011;18200;48.726;8.892;2023-07-13T13:59:39;4.80;;;1.45;;
31594;SDS011;18200;48.726;8.892;2023-07-13T14:03:42;5.13;;;1.20;;
31594;SDS011;18200;48.726;8.892;2023-07-13T14:07:43;3.28;;;1.92;;
31594;SDS011;18200;48.726;8.892;2023-07-13T14:11:44;5.03;;;1.48;;
31594;SDS011;18200;48.726;8.892;2023-07-13T14:15:46;6.38;;;1.55;;
31594;SDS011;18200;48.726;8.892;2023-07-13T14:19:46;2.22;;;1.30;;
31594;SDS011;18200;48.726;8.892;2023-07-13T14:23:50;5.45;;;1.60;;
31594;SDS011;18200;48.726;8.892;2023-07-13T14:27:55;5.65;;;1.48;;
31594;SDS011;18200;48.726;8.892;2023-07-13T14:31:58;9.00;;;1.88;;
31594;SDS011;18200;48.726;8.892;2023-07-13T14:35:59;3.88;;;1.20;;
31594;SDS011;18200;48.726;8.892;2023-07-13T14:39:59;5.43;;;1.38;;
31594;SDS011;18200;48.726;8.892;2023-07-13T14:44:00;5.20;;;1.55;;
31594;SDS011;18200;48.726;8.892;2023-07-13T14:48:01;6.07;;;1.73;;
31594;SDS011;18200;48.726;8.892;2023-07-13T14:52:23;6.47;;;1.60;;
31594;SDS011;18200;48.726;8.892;2023-07-13T14:56:24;3.40;;;1.40;;
31594;SDS011;18200;48.726;8.892;2023-07-13T15:00:25;3.72;;;1.52;;
31594;SDS011;18200;48.726;8.892;2023-07-13T15:04:25;7.43;;;1.70;;
31594;SDS011;18200;48.726;8.892;2023-07-13T15:08:25;3.53;;;1.20;;
31594;SDS011;18200;48.726;8.892;2023-07-13T15:12:26;4.95;;;1.48;;
31594;SDS011;18200;48.726;8.892;2023-07-13T15:16:26;4.70;;;1.20;;
31594;SDS011;18200;48.726;8.892;2023-07-13T15:20:33;6.30;;;1.67;;
31594;SDS011;18200;48.726;8.892;2023-07-13T15:24:38;8.68;;;1.50;;
31594;SDS011;18200;48.726;8.892;2023-07-13T15:28:39;3.55;;;1.35;;
31594;SDS011;18200;48.726;8.892;2023-07-13T15:32:45;4.63;;;2.10;;
31594;SDS011;18200;48.726;8.892;2023-07-13T15:36:45;2.28;;;1.50;;
31594;SDS011;18200;48.726;8.892;2023-07-13T15:40:46;6.20;;;1.40;;
31594;SDS011;18200;48.726;8.892;2023-07-13T15:44:48;3.90;;;1.30;;
31594;SDS011;18200;48.726;8.892;2023-07-13T15:48:49;3.45;;;1.58;;
31594;SDS011;18200;48.726;8.892;2023-07-13T15:52:54;3.55;;;1.35;;
31594;SDS011;18200;48.726;8.892;2023-07-13T15:57:00;5.45;;;1.63;;
31594;SDS011;18200;48.726;8.892;2023-07-13T16:01:01;3.45;;;1.35;;
31594;SDS011;18200;48.726;8.892;2023-07-13T16:05:02;8.93;;;1.67;;
31594;SDS011;18200;48.726;8.892;2023-07-13T16:09:03;2.92;;;1.30;;
31594;SDS011;18200;48.726;8.892;2023-07-13T16:13:05;2.92;;;1.38;;
31594;SDS011;18200;48.726;8.892;2023-07-13T16:17:11;3.00;;;1.50;;
31594;SDS011;18200;48.726;8.892;2023-07-13T16:21:15;5.18;;;1.38;;
31594;SDS011;18200;48.726;8.892;2023-07-13T16:25:18;13.40;;;1.80;;
31594;SDS011;18200;48.726;8.892;2023-07-13T16:29:22;5.15;;;1.45;;
31594;SDS011;18200;48.726;8.892;2023-07-13T16:37:26;6.10;;;1.47;;
31594;SDS011;18200;48.726;8.892;2023-07-13T16:41:29;8.80;;;1.30;;
31594;SDS011;18200;48.726;8.892;2023-07-13T16:45:30;6.38;;;1.45;;
31594;SDS011;18200;48.726;8.892;2023-07-13T16:49:36;4.85;;;1.40;;
31594;SDS011;18200;48.726;8.892;2023-07-13T16:53:37;3.05;;;1.40;;
31594;SDS011;18200;48.726;8.892;2023-07-13T16:57:41;7.15;;;1.80;;
31594;SDS011;18200;48.726;8.892;2023-07-13T17:01:44;4.28;;;1.15;;
31594;SDS011;18200;48.726;8.892;2023-07-13T17:05:46;3.53;;;1.33;;
31594;SDS011;18200;48.726;8.892;2023-07-13T17:09:51;5.93;;;1.40;;
31594;SDS011;18200;48.726;8.892;2023-07-13T17:13:52;2.67;;;1.25;;
31594;SDS011;18200;48.726;8.892;2023-07-13T17:17:52;5.35;;;1.40;;
31594;SDS011;18200;48.726;8.892;2023-07-13T17:22:08;4.45;;;1.20;;
31594;SDS011;18200;48.726;8.892;2023-07-13T17:26:18;3.38;;;1.38;;
31594;SDS011;18200;48.726;8.892;2023-07-13T17:30:20;4.25;;;1.30;;
31594;SDS011;18200;48.726;8.892;2023-07-13T17:34:22;3.67;;;1.40;;
31594;SDS011;18200;48.726;8.892;2023-07-13T17:38:29;4.97;;;1.58;;
31594;SDS011;18200;48.726;8.892;2023-07-13T17:42:33;6.28;;;1.83;;
31594;SDS011;18200;48.726;8.892;2023-07-13T17:46:34;5.93;;;1.70;;
31594;SDS011;18200;48.726;8.892;2023-07-13T17:50:35;4.60;;;1.50;;
31594;SDS011;18200;48.726;8.892;2023-07-13T17:54:35;7.03;;;1.45;;
31594;SDS011;18200;48.726;8.892;2023-07-13T17:58:36;3.53;;;1.63;;
31594;SDS011;18200;48.726;8.892;2023-07-13T18:02:37;6.88;;;1.73;;
31594;SDS011;18200;48.726;8.892;2023-07-13T18:06:39;4.90;;;1.38;;
31594;SDS011;18200;48.726;8.892;2023-07-13T18:10:42;5.55;;;1.65;;
31594;SDS011;18200;48.726;8.892;2023-07-13T18:14:42;5.38;;;1.48;;
31594;SDS011;18200;48.726;8.892;2023-07-13T18:18:43;5.57;;;1.30;;
31594;SDS011;18200;48.726;8.892;2023-07-13T18:22:43;4.30;;;1.67;;
31594;SDS011;18200;48.726;8.892;2023-07-13T18:26:44;14.43;;;1.48;;
31594;SDS011;18200;48.726;8.892;2023-07-13T18:30:45;3.45;;;1.48;;
31594;SDS011;18200;48.726;8.892;2023-07-13T18:34:58;4.57;;;1.60;;
31594;SDS011;18200;48.726;8.892;2023-07-13T18:38:58;5.28;;;1.58;;
31594;SDS011;18200;48.726;8.892;2023-07-13T18:42:59;2.70;;;1.45;;
31594;SDS011;18200;48.726;8.892;2023-07-13T18:46:59;7.30;;;1.92;;
31594;SDS011;18200;48.726;8.892;2023-07-13T18:50:59;6.03;;;1.53;;
31594;SDS011;18200;48.726;8.892;2023-07-13T18:55:00;2.65;;;1.38;;
31594;SDS011;18200;48.726;8.892;2023-07-13T18:59:01;5.40;;;1.70;;
31594;SDS011;18200;48.726;8.892;2023-07-13T19:03:01;5.77;;;1.53;;
31594;SDS011;18200;48.726;8.892;2023-07-13T19:07:04;1.95;;;1.27;;
31594;SDS011;18200;48.726;8.892;2023-07-13T19:11:10;6.07;;;1.38;;
31594;SDS011;18200;48.726;8.892;2023-07-13T19:15:17;5.50;;;2.30;;
31594;SDS011;18200;48.726;8.892;2023-07-13T19:19:20;8.88;;;3.63;;
31594;SDS011;18200;48.726;8.892;2023-07-13T19:23:24;10.85;;;6.28;;
31594;SDS011;18200;48.726;8.892;2023-07-13T19:27:28;10.77;;;6.45;;
31594;SDS011;18200;48.726;8.892;2023-07-13T19:31:30;15.35;;;5.00;;
31594;SDS011;18200;48.726;8.892;2023-07-13T19:35:34;12.98;;;6.50;;
31594;SDS011;18200;48.726;8.892;2023-07-13T19:39:35;9.20;;;5.30;;
31594;SDS011;18200;48.726;8.892;2023-07-13T19:43:39;8.85;;;4.90;;
31594;SDS011;18200;48.726;8.892;2023-07-13T19:47:39;10.07;;;5.03;;
31594;SDS011;18200;48.726;8.892;2023-07-13T19:51:40;10.00;;;3.70;;
31594;SDS011;18200;48.726;8.892;2023-07-13T19:55:41;6.60;;;3.28;;
31594;SDS011;18200;48.726;8.892;2023-07-13T19:59:41;11.50;;;5.20;;
31594;SDS011;18200;48.726;8.892;2023-07-13T20:03:41;14.90;;;4.30;;
31594;SDS011;18200;48.726;8.892;2023-07-13T20:07:46;4.40;;;2.22;;
31594;SDS011;18200;48.726;8.892;2023-07-13T20:11:52;6.53;;;2.22;;
31594;SDS011;18200;48.726;8.892;2023-07-13T20:15:53;6.03;;;3.30;;
31594;SDS011;18200;48.726;8.892;2023-07-13T20:19:53;5.60;;;2.17;;
31594;SDS011;18200;48.726;8.892;2023-07-13T20:23:53;4.80;;;2.10;;
31594;SDS011;18200;48.726;8.892;2023-07-13T20:27:54;7.43;;;2.45;;
31594;SDS011;18200;48.726;8.892;2023-07-13T20:31:56;6.75;;;2.38;;
31594;SDS011;18200;48.726;8.892;2023-07-13T20:36:01;6.38;;;2.38;;
31594;SDS011;18200;48.726;8.892;2023-07-13T20:40:08;5.10;;;2.15;;
31594;SDS011;18200;48.726;8.892;2023-07-13T20:44:13;8.18;;;2.08;;
31594;SDS011;18200;48.726;8.892;2023-07-13T20:52:24;4.90;;;2.05;;
31594;SDS011;18200;48.726;8.892;2023-07-13T20:56:26;6.60;;;2.10;;
31594;SDS011;18200;48.726;8.892;2023-07-13T21:00:29;9.77;;;2.42;;
31594;SDS011;18200;48.726;8.892;2023-07-13T21:04:29;6.45;;;2.03;;
31594;SDS011;18200;48.726;8.892;2023-07-13T21:08:30;9.02;;;1.90;;
31594;SDS011;18200;48.726;8.892;2023-07-13T21:12:30;5.38;;;1.90;;
31594;SDS011;18200;48.726;8.892;2023-07-13T21:16:31;7.45;;;2.20;;
31594;SDS011;18200;48.726;8.892;2023-07-13T21:20:38;3.13;;;1.80;;
31594;SDS011;18200;48.726;8.892;2023-07-13T21:24:42;5.28;;;1.80;;
31594;SDS011;18200;48.726;8.892;2023-07-13T21:28:43;2.25;;;1.58;;
31594;SDS011;18200;48.726;8.892;2023-07-13T21:32:46;5.15;;;1.92;;
31594;SDS011;18200;48.726;8.892;2023-07-13T21:36:49;6.25;;;1.85;;
31594;SDS011;18200;48.726;8.892;2023-07-13T21:41:01;5.50;;;2.03;;
31594;SDS011;18200;48.726;8.892;2023-07-13T21:45:10;5.38;;;2.00;;
31594;SDS011;18200;48.726;8.892;2023-07-13T21:49:18;7.38;;;2.08;;
31594;SDS011;18200;48.726;8.892;2023-07-13T21:53:29;8.82;;;2.15;;
31594;SDS011;18200;48.726;8.892;2023-07-13T21:57:31;7.60;;;2.20;;
31594;SDS011;18200;48.726;8.892;2023-07-13T22:01:31;4.45;;;2.20;;
31594;SDS011;18200;48.726;8.892;2023-07-13T22:05:36;4.15;;;2.13;;
31594;SDS011;18200;48.726;8.892;2023-07-13T22:09:37;5.38;;;2.28;;
31594;SDS011;18200;48.726;8.892;2023-07-13T22:13:37;8.23;;;2.15;;
31594;SDS011;18200;48.726;8.892;2023-07-13T22:17:45;3.28;;;1.73;;
31594;SDS011;18200;48.726;8.892;2023-07-13T22:21:47;4.03;;;1.77;;
31594;SDS011;18200;48.726;8.892;2023-07-13T22:25:47;6.47;;;2.17;;
31594;SDS011;18200;48.726;8.892;2023-07-13T22:29:50;6.22;;;2.00;;
31594;SDS011;18200;48.726;8.892;2023-07-13T22:33:50;6.13;;;2.50;;
31594;SDS011;18200;48.726;8.892;2023-07-13T22:37:51;5.65;;;2.20;;
31594;SDS011;18200;48.726;8.892;2023-07-13T22:41:51;4.35;;;2.20;;
31594;SDS011;18200;48.726;8.892;2023-07-13T22:45:55;4.80;;;2.08;;
31594;SDS011;18200;48.726;8.892;2023-07-13T22:49:57;3.25;;;1.80;;
31594;SDS011;18200;48.726;8.892;2023-07-13T22:53:58;6.50;;;2.40;;
31594;SDS011;18200;48.726;8.892;2023-07-13T22:57:58;6.72;;;2.45;;
31594;SDS011;18200;48.726;8.892;2023-07-13T23:01:58;6.43;;;2.10;;
31594;SDS011;18200;48.726;8.892;2023-07-13T23:06:00;4.63;;;2.10;;
31594;SDS011;18200;48.726;8.892;2023-07-13T23:10:04;5.38;;;2.13;;
31594;SDS011;18200;48.726;8.892;2023-07-13T23:14:15;4.80;;;1.98;;
31594;SDS011;18200;48.726;8.892;2023-07-13T23:18:17;4.80;;;1.95;;
31594;SDS011;18200;48.726;8.892;2023-07-13T23:22:21;6.13;;;2.58;;
31594;SDS011;18200;48.726;8.892;2023-07-13T23:26:25;4.30;;;1.90;;
31594;SDS011;18200;48.726;8.892;2023-07-13T23:30:27;4.32;;;2.08;;
31594;SDS011;18200;48.726;8.892;2023-07-13T23:34:29;6.47;;;2.10;;
31594;SDS011;18200;48.726;8.892;2023-07-13T23:38:30;4.68;;;2.25;;
31594;SDS011;18200;48.726;8.892;2023-07-13T23:42:31;8.43;;;2.42;;
31594;SDS011;18200;48.726;8.892;2023-07-13T23:46:41;4.85;;;2.20;;
31594;SDS011;18200;48.726;8.892;2023-07-13T23:50:49;5.55;;;2.13;;
31594;SDS011;18200;48.726;8.892;2023-07-13T23:54:50;6.63;;;2.40;;
31594;SDS011;18200;48.726;8.892;2023-07-13T23:58:51;5.03;;;2.00;;
